sensor_id;sensor_type;location;lat;lon;timestamp;temperature;humidity
57843;DHT22;43673;51.058;3.734;2022-12-16T00:01:07;1.70;99.90
57843;DHT22;43673;51.058;3.734;2022-12-16T00:03:33;1.60;99.90
57843;DHT22;43673;51.058;3.734;2022-12-16T00:05:59;1.60;99.90
57843;DHT22;43673;51.058;3.734;2022-12-16T00:08:28;1.70;99.90
57843;DHT22;43673;51.058;3.734;2022-12-16T00:10:57;1.60;99.90
57843;DHT22;43673;51.058;3.734;2022-12-16T00:13:23;1.80;99.90
57843;DHT22;43673;51.058;3.734;2022-12-16T00:15:48;1.60;99.90
57843;DHT22;43673;51.058;3.734;2022-12-16T00:18:14;1.60;99.90
57843;DHT22;43673;51.058;3.734;2022-12-16T00:20:47;1.60;99.90
57843;DHT22;43673;51.058;3.734;2022-12-16T00:23:13;1.60;99.90
57843;DHT22;43673;51.058;3.734;2022-12-16T00:25:43;1.60;99.90
57843;DHT22;43673;51.058;3.734;2022-12-16T00:28:10;1.50;99.90
57843;DHT22;43673;51.058;3.734;2022-12-16T00:30:36;1.50;99.90
57843;DHT22;43673;51.058;3.734;2022-12-16T00:33:02;1.60;99.90
57843;DHT22;43673;51.058;3.734;2022-12-16T00:35:27;1.50;99.90
57843;DHT22;43673;51.058;3.734;2022-12-16T00:37:55;1.40;99.90
57843;DHT22;43673;51.058;3.734;2022-12-16T00:40:20;1.50;99.90
57843;DHT22;43673;51.058;3.734;2022-12-16T00:42:46;1.50;99.90
57843;DHT22;43673;51.058;3.734;2022-12-16T00:45:12;1.40;99.90
57843;DHT22;43673;51.058;3.734;2022-12-16T00:47:38;1.40;99.90
57843;DHT22;43673;51.058;3.734;2022-12-16T00:50:04;1.60;99.90
57843;DHT22;43673;51.058;3.734;2022-12-16T00:52:30;1.40;99.90
57843;DHT22;43673;51.058;3.734;2022-12-16T00:54:55;1.40;99.90
57843;DHT22;43673;51.058;3.734;2022-12-16T00:57:21;1.50;99.90
57843;DHT22;43673;51.058;3.734;2022-12-16T00:59:47;1.40;99.90
57843;DHT22;43673;51.058;3.734;2022-12-16T01:02:12;1.40;99.90
57843;DHT22;43673;51.058;3.734;2022-12-16T01:04:38;1.40;99.90
57843;DHT22;43673;51.058;3.734;2022-12-16T01:07:04;1.40;99.90
57843;DHT22;43673;51.058;3.734;2022-12-16T01:09:30;1.50;99.90
57843;DHT22;43673;51.058;3.734;2022-12-16T01:11:55;1.50;99.90
57843;DHT22;43673;51.058;3.734;2022-12-16T01:14:21;1.40;99.90
57843;DHT22;43673;51.058;3.734;2022-12-16T01:16:47;1.50;99.90
57843;DHT22;43673;51.058;3.734;2022-12-16T01:19:12;1.60;99.90
57843;DHT22;43673;51.058;3.734;2022-12-16T01:21:38;1.60;99.90
57843;DHT22;43673;51.058;3.734;2022-12-16T01:24:04;1.60;99.90
57843;DHT22;43673;51.058;3.734;2022-12-16T01:26:30;1.60;99.90
57843;DHT22;43673;51.058;3.734;2022-12-16T01:28:56;1.70;99.90
57843;DHT22;43673;51.058;3.734;2022-12-16T01:31:23;1.80;99.90
57843;DHT22;43673;51.058;3.734;2022-12-16T01:33:49;1.70;99.90
57843;DHT22;43673;51.058;3.734;2022-12-16T01:36:15;1.70;99.90
57843;DHT22;43673;51.058;3.734;2022-12-16T01:38:42;1.80;99.90
57843;DHT22;43673;51.058;3.734;2022-12-16T01:41:09;1.70;99.90
57843;DHT22;43673;51.058;3.734;2022-12-16T01:43:37;1.70;99.90
57843;DHT22;43673;51.058;3.734;2022-12-16T01:46:13;1.80;99.90
57843;DHT22;43673;51.058;3.734;2022-12-16T01:48:46;1.80;99.90
57843;DHT22;43673;51.058;3.734;2022-12-16T01:51:39;1.80;99.90
57843;DHT22;43673;51.058;3.734;2022-12-16T01:56:39;1.80;99.90
57843;DHT22;43673;51.058;3.734;2022-12-16T01:59:06;1.80;99.90
57843;DHT22;43673;51.058;3.734;2022-12-16T02:01:33;1.70;99.90
57843;DHT22;43673;51.058;3.734;2022-12-16T02:04:00;1.80;99.90
57843;DHT22;43673;51.058;3.734;2022-12-16T02:06:28;1.80;99.90
57843;DHT22;43673;51.058;3.734;2022-12-16T02:08:56;1.80;99.90
57843;DHT22;43673;51.058;3.734;2022-12-16T02:14:38;1.70;99.90
57843;DHT22;43673;51.058;3.734;2022-12-16T02:17:31;1.70;99.90
57843;DHT22;43673;51.058;3.734;2022-12-16T02:26:11;1.90;99.90
57843;DHT22;43673;51.058;3.734;2022-12-16T02:37:13;2.00;99.90
57843;DHT22;43673;51.058;3.734;2022-12-16T02:40:00;2.10;99.90
57843;DHT22;43673;51.058;3.734;2022-12-16T02:42:30;2.20;99.90
57843;DHT22;43673;51.058;3.734;2022-12-16T02:47:59;2.40;99.90
57843;DHT22;43673;51.058;3.734;2022-12-16T02:50:26;2.40;99.90
57843;DHT22;43673;51.058;3.734;2022-12-16T02:52:55;2.60;99.90
57843;DHT22;43673;51.058;3.734;2022-12-16T02:55:28;2.70;99.90
57843;DHT22;43673;51.058;3.734;2022-12-16T03:01:00;2.70;99.90
57843;DHT22;43673;51.058;3.734;2022-12-16T03:03:37;2.80;99.90
57843;DHT22;43673;51.058;3.734;2022-12-16T03:06:05;2.90;99.90
57843;DHT22;43673;51.058;3.734;2022-12-16T03:08:38;2.90;99.90
57843;DHT22;43673;51.058;3.734;2022-12-16T03:11:06;3.20;99.90
57843;DHT22;43673;51.058;3.734;2022-12-16T03:13:39;3.10;99.90
57843;DHT22;43673;51.058;3.734;2022-12-16T03:16:08;3.20;99.90
57843;DHT22;43673;51.058;3.734;2022-12-16T03:18:37;3.20;99.90
57843;DHT22;43673;51.058;3.734;2022-12-16T03:21:06;3.20;99.90
57843;DHT22;43673;51.058;3.734;2022-12-16T03:23:45;3.20;99.90
57843;DHT22;43673;51.058;3.734;2022-12-16T03:26:19;3.30;99.90
57843;DHT22;43673;51.058;3.734;2022-12-16T03:31:32;3.20;99.90
57843;DHT22;43673;51.058;3.734;2022-12-16T03:34:15;3.20;99.90
57843;DHT22;43673;51.058;3.734;2022-12-16T03:36:44;3.20;99.90
57843;DHT22;43673;51.058;3.734;2022-12-16T03:39:11;3.20;99.90
57843;DHT22;43673;51.058;3.734;2022-12-16T03:41:38;3.10;99.90
57843;DHT22;43673;51.058;3.734;2022-12-16T03:44:06;3.30;99.90
57843;DHT22;43673;51.058;3.734;2022-12-16T03:46:32;3.10;99.90
57843;DHT22;43673;51.058;3.734;2022-12-16T03:48:58;3.10;99.90
57843;DHT22;43673;51.058;3.734;2022-12-16T03:51:24;3.10;99.90
57843;DHT22;43673;51.058;3.734;2022-12-16T03:53:49;3.10;99.90
57843;DHT22;43673;51.058;3.734;2022-12-16T03:56:15;3.10;99.90
57843;DHT22;43673;51.058;3.734;2022-12-16T03:58:41;3.20;99.90
57843;DHT22;43673;51.058;3.734;2022-12-16T04:01:08;3.00;99.90
57843;DHT22;43673;51.058;3.734;2022-12-16T04:03:34;2.90;99.90
57843;DHT22;43673;51.058;3.734;2022-12-16T04:06:00;2.90;99.90
57843;DHT22;43673;51.058;3.734;2022-12-16T04:08:26;2.80;99.90
57843;DHT22;43673;51.058;3.734;2022-12-16T04:10:52;3.00;99.90
57843;DHT22;43673;51.058;3.734;2022-12-16T04:13:36;2.80;99.90
57843;DHT22;43673;51.058;3.734;2022-12-16T04:16:22;2.80;99.90
57843;DHT22;43673;51.058;3.734;2022-12-16T04:19:21;2.80;99.90
57843;DHT22;43673;51.058;3.734;2022-12-16T04:22:21;2.90;99.90
57843;DHT22;43673;51.058;3.734;2022-12-16T04:25:15;2.60;99.90
57843;DHT22;43673;51.058;3.734;2022-12-16T04:27:41;2.60;99.90
57843;DHT22;43673;51.058;3.734;2022-12-16T04:30:15;2.50;99.90
57843;DHT22;43673;51.058;3.734;2022-12-16T04:32:52;2.60;99.90
57843;DHT22;43673;51.058;3.734;2022-12-16T04:35:37;2.50;99.90
57843;DHT22;43673;51.058;3.734;2022-12-16T04:38:21;2.50;99.90
57843;DHT22;43673;51.058;3.734;2022-12-16T04:41:06;2.40;99.90
57843;DHT22;43673;51.058;3.734;2022-12-16T04:43:50;2.50;99.90
57843;DHT22;43673;51.058;3.734;2022-12-16T04:46:34;2.40;99.90
57843;DHT22;43673;51.058;3.734;2022-12-16T04:49:18;2.50;99.90
57843;DHT22;43673;51.058;3.734;2022-12-16T04:52:03;2.40;99.90
57843;DHT22;43673;51.058;3.734;2022-12-16T04:54:48;2.40;99.90
57843;DHT22;43673;51.058;3.734;2022-12-16T04:57:33;2.40;99.90
57843;DHT22;43673;51.058;3.734;2022-12-16T05:00:18;2.40;99.90
57843;DHT22;43673;51.058;3.734;2022-12-16T05:03:03;2.50;99.90
57843;DHT22;43673;51.058;3.734;2022-12-16T05:05:47;2.60;99.90
57843;DHT22;43673;51.058;3.734;2022-12-16T05:08:31;2.50;99.90
57843;DHT22;43673;51.058;3.734;2022-12-16T05:11:15;2.60;99.90
57843;DHT22;43673;51.058;3.734;2022-12-16T05:13:59;2.70;99.90
57843;DHT22;43673;51.058;3.734;2022-12-16T05:16:44;2.50;99.90
57843;DHT22;43673;51.058;3.734;2022-12-16T05:19:28;2.60;99.90
57843;DHT22;43673;51.058;3.734;2022-12-16T05:22:12;2.60;99.90
57843;DHT22;43673;51.058;3.734;2022-12-16T05:24:56;2.80;99.90
57843;DHT22;43673;51.058;3.734;2022-12-16T05:27:41;2.70;99.90
57843;DHT22;43673;51.058;3.734;2022-12-16T05:30:25;2.60;99.90
57843;DHT22;43673;51.058;3.734;2022-12-16T05:33:09;2.60;99.90
57843;DHT22;43673;51.058;3.734;2022-12-16T05:35:53;2.70;99.90
57843;DHT22;43673;51.058;3.734;2022-12-16T05:38:37;2.60;99.90
57843;DHT22;43673;51.058;3.734;2022-12-16T05:41:21;2.70;99.90
57843;DHT22;43673;51.058;3.734;2022-12-16T05:44:05;2.50;99.90
57843;DHT22;43673;51.058;3.734;2022-12-16T05:46:49;2.50;99.90
57843;DHT22;43673;51.058;3.734;2022-12-16T05:49:33;2.50;99.90
57843;DHT22;43673;51.058;3.734;2022-12-16T05:52:18;2.60;99.90
57843;DHT22;43673;51.058;3.734;2022-12-16T05:55:03;2.60;99.90
57843;DHT22;43673;51.058;3.734;2022-12-16T05:57:49;2.50;99.90
57843;DHT22;43673;51.058;3.734;2022-12-16T06:00:42;2.50;99.90
57843;DHT22;43673;51.058;3.734;2022-12-16T06:03:26;2.40;99.90
57843;DHT22;43673;51.058;3.734;2022-12-16T06:06:10;2.60;99.90
57843;DHT22;43673;51.058;3.734;2022-12-16T06:08:54;2.40;99.90
57843;DHT22;43673;51.058;3.734;2022-12-16T06:11:38;2.40;99.90
57843;DHT22;43673;51.058;3.734;2022-12-16T06:14:23;2.40;99.90
57843;DHT22;43673;51.058;3.734;2022-12-16T06:17:07;2.40;99.90
57843;DHT22;43673;51.058;3.734;2022-12-16T06:19:51;2.40;99.90
57843;DHT22;43673;51.058;3.734;2022-12-16T06:22:35;2.40;99.90
57843;DHT22;43673;51.058;3.734;2022-12-16T06:25:19;2.40;99.90
57843;DHT22;43673;51.058;3.734;2022-12-16T06:28:03;2.50;99.90
57843;DHT22;43673;51.058;3.734;2022-12-16T06:30:47;2.50;99.90
57843;DHT22;43673;51.058;3.734;2022-12-16T06:33:31;2.40;99.90
57843;DHT22;43673;51.058;3.734;2022-12-16T06:36:15;2.40;99.90
57843;DHT22;43673;51.058;3.734;2022-12-16T06:39:01;2.40;99.90
57843;DHT22;43673;51.058;3.734;2022-12-16T06:41:45;2.50;99.90
57843;DHT22;43673;51.058;3.734;2022-12-16T06:44:29;2.50;99.90
57843;DHT22;43673;51.058;3.734;2022-12-16T06:47:13;2.50;99.90
57843;DHT22;43673;51.058;3.734;2022-12-16T06:49:57;2.50;99.90
57843;DHT22;43673;51.058;3.734;2022-12-16T06:52:42;2.60;99.90
57843;DHT22;43673;51.058;3.734;2022-12-16T06:55:26;2.40;99.90
57843;DHT22;43673;51.058;3.734;2022-12-16T06:58:11;2.50;99.90
57843;DHT22;43673;51.058;3.734;2022-12-16T07:00:55;2.70;99.90
57843;DHT22;43673;51.058;3.734;2022-12-16T07:03:39;2.40;99.90
57843;DHT22;43673;51.058;3.734;2022-12-16T07:06:23;2.40;99.90
57843;DHT22;43673;51.058;3.734;2022-12-16T07:09:07;2.30;99.90
57843;DHT22;43673;51.058;3.734;2022-12-16T07:11:52;2.40;99.90
57843;DHT22;43673;51.058;3.734;2022-12-16T07:14:36;2.40;99.90
57843;DHT22;43673;51.058;3.734;2022-12-16T07:17:20;2.40;99.90
57843;DHT22;43673;51.058;3.734;2022-12-16T07:20:05;2.30;99.90
57843;DHT22;43673;51.058;3.734;2022-12-16T07:22:50;2.30;99.90
57843;DHT22;43673;51.058;3.734;2022-12-16T07:25:34;2.30;99.90
57843;DHT22;43673;51.058;3.734;2022-12-16T07:28:18;2.20;99.90
57843;DHT22;43673;51.058;3.734;2022-12-16T07:31:02;2.30;99.90
57843;DHT22;43673;51.058;3.734;2022-12-16T07:33:47;2.20;99.90
57843;DHT22;43673;51.058;3.734;2022-12-16T07:36:31;2.20;99.90
57843;DHT22;43673;51.058;3.734;2022-12-16T07:39:15;2.20;99.90
57843;DHT22;43673;51.058;3.734;2022-12-16T07:41:59;2.20;99.90
57843;DHT22;43673;51.058;3.734;2022-12-16T07:44:43;2.10;99.90
57843;DHT22;43673;51.058;3.734;2022-12-16T07:47:27;2.10;99.90
57843;DHT22;43673;51.058;3.734;2022-12-16T07:50:11;2.10;99.90
57843;DHT22;43673;51.058;3.734;2022-12-16T07:52:59;2.00;99.90
57843;DHT22;43673;51.058;3.734;2022-12-16T07:55:43;2.00;99.90
57843;DHT22;43673;51.058;3.734;2022-12-16T07:58:28;1.90;99.90
57843;DHT22;43673;51.058;3.734;2022-12-16T08:01:12;1.90;99.90
57843;DHT22;43673;51.058;3.734;2022-12-16T08:03:56;1.80;99.90
57843;DHT22;43673;51.058;3.734;2022-12-16T08:06:40;1.70;99.90
57843;DHT22;43673;51.058;3.734;2022-12-16T08:09:25;1.80;99.90
57843;DHT22;43673;51.058;3.734;2022-12-16T08:12:12;1.80;99.90
57843;DHT22;43673;51.058;3.734;2022-12-16T08:14:56;1.80;99.90
57843;DHT22;43673;51.058;3.734;2022-12-16T08:17:50;1.80;99.90
57843;DHT22;43673;51.058;3.734;2022-12-16T08:20:35;1.90;99.90
57843;DHT22;43673;51.058;3.734;2022-12-16T08:23:19;1.90;99.90
57843;DHT22;43673;51.058;3.734;2022-12-16T08:26:04;2.00;99.90
57843;DHT22;43673;51.058;3.734;2022-12-16T08:28:49;2.00;99.90
57843;DHT22;43673;51.058;3.734;2022-12-16T08:31:33;2.10;99.90
57843;DHT22;43673;51.058;3.734;2022-12-16T08:34:18;2.20;99.90
57843;DHT22;43673;51.058;3.734;2022-12-16T08:37:02;2.30;99.90
57843;DHT22;43673;51.058;3.734;2022-12-16T08:39:46;2.50;99.90
57843;DHT22;43673;51.058;3.734;2022-12-16T08:42:30;2.50;99.90
57843;DHT22;43673;51.058;3.734;2022-12-16T08:45:15;2.80;99.90
57843;DHT22;43673;51.058;3.734;2022-12-16T08:47:59;2.60;99.90
57843;DHT22;43673;51.058;3.734;2022-12-16T08:50:43;2.60;99.90
57843;DHT22;43673;51.058;3.734;2022-12-16T08:53:27;2.60;99.90
57843;DHT22;43673;51.058;3.734;2022-12-16T08:56:11;2.70;99.90
57843;DHT22;43673;51.058;3.734;2022-12-16T08:58:55;2.80;99.90
57843;DHT22;43673;51.058;3.734;2022-12-16T09:01:39;2.90;99.90
57843;DHT22;43673;51.058;3.734;2022-12-16T09:04:23;3.00;99.90
57843;DHT22;43673;51.058;3.734;2022-12-16T09:07:08;3.10;99.90
57843;DHT22;43673;51.058;3.734;2022-12-16T09:09:52;3.10;99.90
57843;DHT22;43673;51.058;3.734;2022-12-16T09:12:36;3.10;99.90
57843;DHT22;43673;51.058;3.734;2022-12-16T09:15:20;3.00;99.90
57843;DHT22;43673;51.058;3.734;2022-12-16T09:18:04;3.30;99.90
57843;DHT22;43673;51.058;3.734;2022-12-16T09:20:50;4.00;99.90
57843;DHT22;43673;51.058;3.734;2022-12-16T09:23:34;4.70;99.90
57843;DHT22;43673;51.058;3.734;2022-12-16T09:26:18;5.60;99.90
57843;DHT22;43673;51.058;3.734;2022-12-16T09:29:04;6.50;99.90
57843;DHT22;43673;51.058;3.734;2022-12-16T09:31:48;7.20;99.90
57843;DHT22;43673;51.058;3.734;2022-12-16T09:34:32;7.80;99.90
57843;DHT22;43673;51.058;3.734;2022-12-16T09:37:16;8.30;99.90
57843;DHT22;43673;51.058;3.734;2022-12-16T09:40:00;8.80;99.90
57843;DHT22;43673;51.058;3.734;2022-12-16T09:46:09;9.60;99.90
57843;DHT22;43673;51.058;3.734;2022-12-16T09:51:58;10.50;99.90
57843;DHT22;43673;51.058;3.734;2022-12-16T09:54:45;10.70;99.90
57843;DHT22;43673;51.058;3.734;2022-12-16T09:57:31;11.00;99.90
57843;DHT22;43673;51.058;3.734;2022-12-16T10:00:27;11.20;99.90
57843;DHT22;43673;51.058;3.734;2022-12-16T10:03:20;11.40;99.90
57843;DHT22;43673;51.058;3.734;2022-12-16T10:12:16;12.30;99.90
57843;DHT22;43673;51.058;3.734;2022-12-16T10:15:44;12.50;99.20
57843;DHT22;43673;51.058;3.734;2022-12-16T10:30:24;13.00;96.50
57843;DHT22;43673;51.058;3.734;2022-12-16T10:33:10;12.90;96.50
57843;DHT22;43673;51.058;3.734;2022-12-16T10:35:56;12.90;96.50
57843;DHT22;43673;51.058;3.734;2022-12-16T10:38:44;12.90;96.50
57843;DHT22;43673;51.058;3.734;2022-12-16T10:41:35;13.00;96.40
57843;DHT22;43673;51.058;3.734;2022-12-16T10:44:30;12.90;96.10
57843;DHT22;43673;51.058;3.734;2022-12-16T10:47:16;12.80;95.90
57843;DHT22;43673;51.058;3.734;2022-12-16T10:50:00;12.70;96.00
57843;DHT22;43673;51.058;3.734;2022-12-16T10:53:03;12.70;95.50
57843;DHT22;43673;51.058;3.734;2022-12-16T10:58:50;12.20;96.20
57843;DHT22;43673;51.058;3.734;2022-12-16T11:01:35;11.70;96.20
57843;DHT22;43673;51.058;3.734;2022-12-16T11:04:36;11.50;96.80
57843;DHT22;43673;51.058;3.734;2022-12-16T11:10:37;10.90;97.40
57843;DHT22;43673;51.058;3.734;2022-12-16T11:16:27;10.40;97.00
57843;DHT22;43673;51.058;3.734;2022-12-16T11:19:26;10.20;96.80
57843;DHT22;43673;51.058;3.734;2022-12-16T11:22:19;10.10;97.10
57843;DHT22;43673;51.058;3.734;2022-12-16T11:25:18;10.10;97.70
57843;DHT22;43673;51.058;3.734;2022-12-16T11:30:53;9.90;98.00
57843;DHT22;43673;51.058;3.734;2022-12-16T11:33:38;9.70;97.80
57843;DHT22;43673;51.058;3.734;2022-12-16T11:36:23;9.50;97.70
57843;DHT22;43673;51.058;3.734;2022-12-16T11:39:14;9.30;98.50
57843;DHT22;43673;51.058;3.734;2022-12-16T11:42:00;9.10;98.70
57843;DHT22;43673;51.058;3.734;2022-12-16T11:50:28;9.20;97.40
57843;DHT22;43673;51.058;3.734;2022-12-16T11:53:52;9.20;98.50
57843;DHT22;43673;51.058;3.734;2022-12-16T11:56:48;9.10;98.50
57843;DHT22;43673;51.058;3.734;2022-12-16T12:02:30;8.70;99.40
57843;DHT22;43673;51.058;3.734;2022-12-16T12:05:15;8.40;99.60
57843;DHT22;43673;51.058;3.734;2022-12-16T12:08:17;8.20;99.90
57843;DHT22;43673;51.058;3.734;2022-12-16T12:11:41;7.90;99.90
57843;DHT22;43673;51.058;3.734;2022-12-16T12:14:38;7.70;99.90
57843;DHT22;43673;51.058;3.734;2022-12-16T12:17:44;7.40;99.90
57843;DHT22;43673;51.058;3.734;2022-12-16T12:24:11;7.00;99.90
57843;DHT22;43673;51.058;3.734;2022-12-16T12:27:09;7.00;99.90
57843;DHT22;43673;51.058;3.734;2022-12-16T12:30:08;6.90;99.90
57843;DHT22;43673;51.058;3.734;2022-12-16T12:35:59;6.80;99.90
57843;DHT22;43673;51.058;3.734;2022-12-16T12:42:01;6.70;99.90
57843;DHT22;43673;51.058;3.734;2022-12-16T12:47:26;6.50;99.90
57843;DHT22;43673;51.058;3.734;2022-12-16T12:50:33;6.40;99.90
57843;DHT22;43673;51.058;3.734;2022-12-16T12:53:40;6.30;99.90
57843;DHT22;43673;51.058;3.734;2022-12-16T12:56:47;6.20;99.90
57843;DHT22;43673;51.058;3.734;2022-12-16T12:59:55;6.10;99.90
57843;DHT22;43673;51.058;3.734;2022-12-16T13:03:20;6.00;99.90
57843;DHT22;43673;51.058;3.734;2022-12-16T13:06:07;5.90;99.90
57843;DHT22;43673;51.058;3.734;2022-12-16T13:08:55;5.80;99.90
57843;DHT22;43673;51.058;3.734;2022-12-16T13:20:56;5.90;99.90
57843;DHT22;43673;51.058;3.734;2022-12-16T13:23:42;5.90;99.90
57843;DHT22;43673;51.058;3.734;2022-12-16T13:26:29;6.00;99.90
57843;DHT22;43673;51.058;3.734;2022-12-16T13:29:28;6.00;99.90
57843;DHT22;43673;51.058;3.734;2022-12-16T13:32:19;6.00;99.90
57843;DHT22;43673;51.058;3.734;2022-12-16T13:38:18;6.10;99.90
57843;DHT22;43673;51.058;3.734;2022-12-16T13:41:05;5.90;99.90
57843;DHT22;43673;51.058;3.734;2022-12-16T13:43:55;5.80;99.90
57843;DHT22;43673;51.058;3.734;2022-12-16T13:46:51;5.70;99.90
57843;DHT22;43673;51.058;3.734;2022-12-16T13:55:51;5.80;99.90
57843;DHT22;43673;51.058;3.734;2022-12-16T14:01:53;5.80;99.90
57843;DHT22;43673;51.058;3.734;2022-12-16T14:04:42;5.80;99.90
57843;DHT22;43673;51.058;3.734;2022-12-16T14:07:29;5.70;99.90
57843;DHT22;43673;51.058;3.734;2022-12-16T14:13:36;5.50;99.90
57843;DHT22;43673;51.058;3.734;2022-12-16T14:19:33;5.60;99.90
57843;DHT22;43673;51.058;3.734;2022-12-16T14:22:53;5.50;99.90
57843;DHT22;43673;51.058;3.734;2022-12-16T14:25:42;5.60;99.90
57843;DHT22;43673;51.058;3.734;2022-12-16T14:28:34;5.60;99.90
57843;DHT22;43673;51.058;3.734;2022-12-16T14:31:27;5.60;99.90
57843;DHT22;43673;51.058;3.734;2022-12-16T14:34:15;5.60;99.90
57843;DHT22;43673;51.058;3.734;2022-12-16T14:40:00;5.50;99.90
57843;DHT22;43673;51.058;3.734;2022-12-16T14:42:46;5.50;99.90
57843;DHT22;43673;51.058;3.734;2022-12-16T14:45:35;5.50;99.90
57843;DHT22;43673;51.058;3.734;2022-12-16T14:48:39;5.40;99.90
57843;DHT22;43673;51.058;3.734;2022-12-16T14:51:32;5.40;99.90
57843;DHT22;43673;51.058;3.734;2022-12-16T14:57:17;5.20;99.90
57843;DHT22;43673;51.058;3.734;2022-12-16T15:02:56;5.10;99.90
57843;DHT22;43673;51.058;3.734;2022-12-16T15:05:43;5.00;99.90
57843;DHT22;43673;51.058;3.734;2022-12-16T15:08:29;5.00;99.90
57843;DHT22;43673;51.058;3.734;2022-12-16T15:11:18;5.00;99.90
57843;DHT22;43673;51.058;3.734;2022-12-16T15:14:03;4.90;99.90
57843;DHT22;43673;51.058;3.734;2022-12-16T15:16:49;4.90;99.90
57843;DHT22;43673;51.058;3.734;2022-12-16T15:19:53;4.90;99.90
57843;DHT22;43673;51.058;3.734;2022-12-16T23:55:02;0.70;99.90
